Time;durP1;ratioP1;P1;durP2;ratioP2;P2;SDS_P1;SDS_P2;PMS_P1;PMS_P2;Temp;Humidity;BMP_temperature;BMP_pressure;BME280_temperature;BME280_humidity;BME280_pressure;Samples;Min_cycle;Max_cycle;Signal;HPM_P1;HPM_P2
2023/06/03 00:01:12;;;;;;;3.53;2.42;;;;;;;17.14;66.56;93672.69;5143983;27;20019;-74
2023/06/03 00:03:39;;;;;;;7.22;2.85;;;;;;;17.12;66.50;93674.97;5144085;27;20146;-73
2023/06/03 00:06:05;;;;;;;8.13;2.63;;;;;;;17.14;66.34;93672.69;5125468;27;20068;-73
2023/06/03 00:08:31;;;;;;;5.10;3.13;;;;;;;17.14;66.64;93670.00;5144232;27;20029;-74
2023/06/03 00:10:56;;;;;;;6.38;2.92;;;;;;;17.15;66.36;93671.53;5143857;27;20337;-73
2023/06/03 00:13:22;;;;;;;6.63;2.95;;;;;;;17.18;66.50;93662.75;5125135;27;20023;-73
2023/06/03 00:15:48;;;;;;;6.63;2.80;;;;;;;17.17;67.04;93666.56;5144206;27;20034;-73
2023/06/03 00:18:16;;;;;;;8.35;3.22;;;;;;;17.14;66.37;93664.63;5143892;27;20248;-73
2023/06/03 00:20:47;;;;;;;6.43;2.72;;;;;;;17.11;66.54;93662.63;5125376;27;20026;-73
2023/06/03 00:23:16;;;;;;;5.93;2.60;;;;;;;17.08;66.73;93649.88;5143688;27;20035;-73
2023/06/03 00:25:41;;;;;;;4.95;2.80;;;;;;;17.09;65.76;93654.91;5143909;27;20090;-73
2023/06/03 00:28:07;;;;;;;6.43;3.00;;;;;;;17.09;65.83;93652.19;5143463;27;20007;-74
2023/06/03 00:30:33;;;;;;;4.53;2.90;;;;;;;17.09;66.00;93646.03;5143828;27;20196;-74
2023/06/03 00:32:58;;;;;;;6.70;2.60;;;;;;;17.07;64.96;93645.63;5143603;27;20198;-74
2023/06/03 00:35:24;;;;;;;6.18;3.22;;;;;;;17.01;64.79;93645.13;5143277;27;20046;-74
2023/06/03 00:37:49;;;;;;;5.63;2.78;;;;;;;16.95;64.75;93647.34;5143228;27;20186;-74
2023/06/03 00:40:15;;;;;;;9.23;3.17;;;;;;;16.93;65.27;93648.84;5143545;27;20019;-75
2023/06/03 00:42:40;;;;;;;4.38;2.85;;;;;;;16.90;65.84;93644.97;5143509;28;20023;-74
2023/06/03 00:45:06;;;;;;;5.15;2.90;;;;;;;16.91;65.80;93651.13;5143657;28;20038;-74
2023/06/03 00:47:32;;;;;;;7.50;3.33;;;;;;;16.89;65.06;93648.00;5143059;28;20037;-76
2023/06/03 00:49:58;;;;;;;4.57;2.45;;;;;;;16.85;64.96;93658.69;5142484;28;20314;-75
2023/06/03 00:52:24;;;;;;;5.70;2.42;;;;;;;16.78;64.61;93647.78;5142201;28;20086;-75
2023/06/03 00:54:51;;;;;;;6.03;2.67;;;;;;;16.76;64.78;93650.06;5142522;28;20029;-73
2023/06/03 00:57:20;;;;;;;6.05;2.63;;;;;;;16.69;65.06;93649.91;5142974;28;20198;-73
2023/06/03 00:59:45;;;;;;;8.75;2.92;;;;;;;16.66;66.52;93646.03;5143485;28;20027;-73
2023/06/03 01:02:12;;;;;;;11.15;3.38;;;;;;;16.63;67.14;93652.91;5143500;28;20389;-74
2023/06/03 01:04:39;;;;;;;4.47;2.72;;;;;;;16.59;67.28;93637.84;5143258;28;20035;-73
2023/06/03 01:07:20;;;;;;;8.45;2.92;;;;;;;16.54;65.69;93630.81;5143193;28;20042;-74
2023/06/03 01:10:06;;;;;;;4.25;2.50;;;;;;;16.49;65.80;93631.13;5143357;27;20015;-74
2023/06/03 01:12:42;;;;;;;8.35;3.60;;;;;;;16.38;66.74;93617.44;5147300;27;20023;-74
2023/06/03 01:15:11;;;;;;;8.90;3.05;;;;;;;16.40;66.41;93619.78;5147561;27;20246;-74
2023/06/03 01:17:45;;;;;;;6.25;3.22;;;;;;;16.42;66.96;93621.00;5147238;27;20518;-74
2023/06/03 01:20:12;;;;;;;9.02;3.58;;;;;;;16.43;67.96;93627.16;5147173;27;20019;-74
2023/06/03 01:22:44;;;;;;;6.90;2.72;;;;;;;16.42;68.43;93621.00;5146636;27;20355;-74
2023/06/03 01:25:12;;;;;;;14.52;3.30;;;;;;;16.39;68.42;93627.09;5147223;27;20023;-73
2023/06/03 01:27:40;;;;;;;5.35;2.70;;;;;;;16.37;68.66;93618.59;5147204;27;20353;-74
2023/06/03 01:30:09;;;;;;;6.88;3.22;;;;;;;16.35;68.75;93612.78;5147211;27;20038;-74
2023/06/03 01:32:37;;;;;;;5.88;3.70;;;;;;;16.36;68.79;93625.09;5147089;27;20019;-74
2023/06/03 01:35:06;;;;;;;6.63;3.53;;;;;;;16.35;68.93;93628.16;5147015;27;20019;-74
2023/06/03 01:37:32;;;;;;;8.90;3.10;;;;;;;16.30;69.07;93629.19;5147168;27;20221;-74
2023/06/03 01:40:00;;;;;;;6.38;3.08;;;;;;;16.28;69.08;93639.53;5147051;27;20030;-74
2023/06/03 01:42:26;;;;;;;5.70;3.30;;;;;;;16.23;69.35;93635.22;5146650;27;20046;-74
2023/06/03 01:44:53;;;;;;;10.07;3.70;;;;;;;16.20;69.19;93638.63;5146815;27;20317;-76
2023/06/03 01:47:19;;;;;;;11.25;3.05;;;;;;;16.16;69.13;93640.47;5146914;27;20214;-75
2023/06/03 01:49:45;;;;;;;5.60;3.40;;;;;;;16.14;68.85;93640.06;5146699;27;20100;-76
2023/06/03 01:52:11;;;;;;;9.50;3.38;;;;;;;16.09;68.95;93634.94;5146600;27;20328;-75
2023/06/03 01:54:37;;;;;;;9.35;3.60;;;;;;;16.06;69.73;93635.66;5146611;27;20015;-76
2023/06/03 01:57:02;;;;;;;8.13;3.92;;;;;;;16.03;70.14;93636.34;5146716;27;20325;-76
2023/06/03 01:59:28;;;;;;;15.52;4.57;;;;;;;16.01;70.00;93644.75;5146559;27;20030;-75
2023/06/03 02:01:55;;;;;;;10.93;3.63;;;;;;;15.98;70.09;93645.47;5128112;27;20019;-75
2023/06/03 02:04:22;;;;;;;6.50;3.35;;;;;;;15.96;70.34;93646.97;5146183;27;20023;-76
2023/06/03 02:06:50;;;;;;;5.53;3.58;;;;;;;15.94;70.52;93650.00;5146204;27;20046;-75
2023/06/03 02:09:16;;;;;;;6.18;3.50;;;;;;;15.93;70.35;93653.03;5146576;27;20023;-75
2023/06/03 02:11:43;;;;;;;7.30;3.38;;;;;;;15.89;70.68;93652.94;5146500;27;20046;-76
2023/06/03 02:14:10;;;;;;;8.65;3.60;;;;;;;15.86;71.25;93650.97;5146137;27;20027;-75
2023/06/03 02:16:35;;;;;;;10.30;3.95;;;;;;;15.84;71.67;93645.94;5146114;27;20035;-75
2023/06/03 02:19:04;;;;;;;5.82;3.45;;;;;;;15.81;71.76;93645.88;5146327;27;20057;-75
2023/06/03 02:21:30;;;;;;;7.60;3.70;;;;;;;15.78;72.06;93649.28;5145659;27;20079;-75
2023/06/03 02:23:56;;;;;;;7.60;3.95;;;;;;;15.72;72.54;93651.44;5145073;27;20043;-75
2023/06/03 02:26:21;;;;;;;7.78;3.60;;;;;;;15.68;72.58;93653.25;5127390;27;20031;-75
2023/06/03 02:28:47;;;;;;;7.65;4.20;;;;;;;15.69;72.55;93657.47;5145863;27;20072;-75
2023/06/03 02:31:12;;;;;;;12.60;4.38;;;;;;;15.65;72.78;93652.03;5145730;27;20095;-75
2023/06/03 02:33:38;;;;;;;6.10;3.35;;;;;;;15.67;72.97;93656.28;5145679;27;20015;-75
2023/06/03 02:36:05;;;;;;;13.32;3.97;;;;;;;15.62;73.26;93660.78;5146154;27;20023;-75
2023/06/03 02:38:31;;;;;;;8.77;3.72;;;;;;;15.60;73.38;93656.91;5145733;27;20027;-75
2023/06/03 02:40:56;;;;;;;9.43;4.20;;;;;;;15.56;73.47;93662.19;5145357;27;20025;-75
2023/06/03 02:43:22;;;;;;;9.13;3.85;;;;;;;15.57;73.91;93668.31;5145675;27;20035;-73
2023/06/03 02:45:47;;;;;;;5.38;3.72;;;;;;;15.56;74.10;93672.16;5145836;27;20079;-74
2023/06/03 02:48:12;;;;;;;11.05;3.60;;;;;;;15.56;74.11;93669.47;5145581;27;20083;-74
2023/06/03 02:50:38;;;;;;;8.40;3.65;;;;;;;15.56;74.15;93672.16;5145531;27;20320;-74
2023/06/03 02:53:04;;;;;;;7.47;3.60;;;;;;;15.57;74.36;93681.75;5145412;27;20050;-74
2023/06/03 02:55:33;;;;;;;7.32;3.97;;;;;;;15.55;74.95;93687.50;5145592;27;20046;-74
2023/06/03 02:57:58;;;;;;;11.13;3.30;;;;;;;15.55;74.97;93681.31;5145415;27;20065;-74
2023/06/03 03:00:24;;;;;;;13.45;4.15;;;;;;;15.56;75.22;93677.53;5145242;27;20027;-74
2023/06/03 03:02:52;;;;;;;7.15;3.92;;;;;;;15.55;75.31;93684.00;5144993;27;20328;-74
2023/06/03 03:05:18;;;;;;;10.60;3.88;;;;;;;15.54;75.47;93685.91;5145447;27;20221;-74
2023/06/03 03:07:44;;;;;;;8.77;3.92;;;;;;;15.55;75.18;93687.50;5145183;27;20091;-74
2023/06/03 03:10:10;;;;;;;12.95;4.07;;;;;;;15.54;75.32;93690.53;5145207;27;20329;-74
2023/06/03 03:12:35;;;;;;;11.00;4.13;;;;;;;15.54;75.02;93691.28;5145064;27;20090;-74
2023/06/03 03:15:01;;;;;;;7.82;3.95;;;;;;;15.54;74.62;93695.91;5126664;27;20026;-74
2023/06/03 03:17:27;;;;;;;11.80;4.00;;;;;;;15.56;74.57;93694.41;5144853;27;20034;-74
2023/06/03 03:19:52;;;;;;;5.97;3.47;;;;;;;15.57;74.67;93690.63;5145096;27;20119;-75
2023/06/03 03:22:18;;;;;;;10.18;3.80;;;;;;;15.61;74.92;93701.41;5144156;27;20057;-75
2023/06/03 03:24:43;;;;;;;13.00;3.83;;;;;;;15.65;74.82;93708.47;5126399;27;20031;-76
2023/06/03 03:27:08;;;;;;;8.80;4.15;;;;;;;15.70;74.94;93701.25;5144827;27;20030;-76
2023/06/03 03:29:34;;;;;;;12.52;3.45;;;;;;;15.75;75.40;93701.00;5145003;27;20023;-77
2023/06/03 03:32:07;;;;;;;5.68;3.88;;;;;;;15.79;75.39;93708.03;5144825;27;20060;-75
2023/06/03 03:34:36;;;;;;;10.52;4.32;;;;;;;15.82;75.48;93718.06;5144635;27;20053;-75
2023/06/03 03:37:02;;;;;;;10.93;4.57;;;;;;;15.86;75.84;93712.78;5144800;27;20023;-75
2023/06/03 03:39:28;;;;;;;12.88;4.95;;;;;;;15.89;75.62;93714.75;5126184;27;20094;-75
2023/06/03 03:41:53;;;;;;;15.73;5.38;;;;;;;15.93;75.63;93717.53;5144466;27;20051;-75
2023/06/03 03:44:19;;;;;;;23.33;5.20;;;;;;;15.95;75.89;93717.97;5144518;27;20023;-75
2023/06/03 03:47:02;;;;;;;15.93;4.18;;;;;;;15.98;76.07;93725.34;5144474;27;20128;-75
2023/06/03 03:49:31;;;;;;;8.45;4.13;;;;;;;16.04;76.42;93729.31;5144178;27;20060;-74
2023/06/03 03:52:03;;;;;;;10.13;4.82;;;;;;;16.07;76.23;93722.47;5144106;27;20015;-74
2023/06/03 03:54:29;;;;;;;7.03;4.60;;;;;;;16.09;76.23;93729.03;5144293;27;20016;-74
2023/06/03 03:56:55;;;;;;;9.98;4.75;;;;;;;16.10;76.33;93727.91;5144028;27;20027;-74
2023/06/03 03:59:21;;;;;;;17.63;5.40;;;;;;;16.12;76.45;93732.91;5144155;27;20077;-75
2023/06/03 04:01:47;;;;;;;7.57;4.97;;;;;;;16.16;76.43;93723.81;5144287;27;20325;-74
2023/06/03 04:04:42;;;;;;;7.97;4.60;;;;;;;16.23;75.77;93726.66;5144338;27;20078;-75
2023/06/03 04:07:08;;;;;;;9.32;4.60;;;;;;;16.30;75.52;93733.31;5135758;27;20027;-75
2023/06/03 04:09:36;;;;;;;8.15;4.40;;;;;;;16.34;74.92;93731.47;5144313;27;20015;-75
2023/06/03 04:12:06;;;;;;;7.60;4.22;;;;;;;16.36;74.54;93731.91;5144025;27;20046;-75
2023/06/03 04:14:44;;;;;;;7.07;4.35;;;;;;;16.38;74.27;93729.66;5144132;27;20038;-75
2023/06/03 04:17:12;;;;;;;11.25;5.03;;;;;;;16.41;74.05;93727.03;5143803;27;20023;-75
2023/06/03 04:19:41;;;;;;;6.03;4.45;;;;;;;16.48;73.70;93725.63;5143773;27;20064;-75
2023/06/03 04:22:08;;;;;;;10.25;4.47;;;;;;;16.53;73.14;93734.19;5143672;27;20094;-75
2023/06/03 04:24:35;;;;;;;9.35;3.80;;;;;;;16.56;73.44;93733.47;5143946;27;20034;-74
2023/06/03 04:27:06;;;;;;;7.55;3.78;;;;;;;16.62;73.56;93726.69;5143625;27;20023;-75
2023/06/03 04:29:32;;;;;;;8.77;4.22;;;;;;;16.70;73.79;93732.22;5143610;27;20362;-75
2023/06/03 04:31:57;;;;;;;10.38;4.28;;;;;;;16.72;73.66;93727.25;5143672;27;20094;-75
2023/06/03 04:34:26;;;;;;;12.60;3.88;;;;;;;16.80;73.30;93731.66;5143503;27;20189;-75
2023/06/03 04:36:52;;;;;;;8.45;4.20;;;;;;;16.83;72.93;93730.94;5143369;27;20056;-75
2023/06/03 04:39:17;;;;;;;15.90;4.28;;;;;;;16.89;71.88;93731.44;5143212;27;20019;-75
2023/06/03 04:41:43;;;;;;;9.68;4.63;;;;;;;16.99;71.46;93730.88;5143660;27;20322;-75
2023/06/03 04:44:11;;;;;;;16.23;4.50;;;;;;;17.03;71.78;93727.09;5143273;28;20346;-75
2023/06/03 04:46:37;;;;;;;7.55;3.95;;;;;;;17.04;70.83;93727.91;5143142;27;20018;-75
2023/06/03 04:49:03;;;;;;;9.00;3.75;;;;;;;17.09;70.04;93737.59;5143537;28;20018;-74
2023/06/03 04:51:33;;;;;;;8.10;4.20;;;;;;;17.14;70.12;93731.94;5143039;28;20015;-75
2023/06/03 04:54:00;;;;;;;10.98;5.22;;;;;;;17.21;69.67;93740.13;5143313;28;20019;-75
2023/06/03 04:56:29;;;;;;;7.88;3.67;;;;;;;17.35;69.12;93740.38;5143529;28;20047;-76
2023/06/03 04:59:00;;;;;;;15.27;6.80;;;;;;;17.35;69.50;93737.69;5143573;28;20030;-76
2023/06/03 05:01:26;;;;;;;11.23;6.20;;;;;;;17.41;69.43;93749.72;5143420;28;20329;-75
2023/06/03 05:03:53;;;;;;;6.70;4.18;;;;;;;17.44;68.94;93743.63;5125217;28;20029;-77
2023/06/03 05:06:19;;;;;;;8.13;4.50;;;;;;;17.46;69.33;93762.09;5143067;28;20042;-76
2023/06/03 05:08:48;;;;;;;8.65;4.43;;;;;;;17.48;69.22;93759.06;5143340;28;20030;-76
2023/06/03 05:11:17;;;;;;;8.52;4.43;;;;;;;17.45;69.37;93766.72;5143291;28;20259;-76
2023/06/03 05:13:43;;;;;;;9.00;5.25;;;;;;;17.42;69.61;93762.06;5124735;28;20023;-76
2023/06/03 05:16:09;;;;;;;14.55;4.95;;;;;;;17.43;69.79;93757.44;5143439;28;20054;-76
2023/06/03 05:18:39;;;;;;;7.60;4.15;;;;;;;17.45;69.65;93774.81;5143182;28;20358;-76
2023/06/03 05:21:05;;;;;;;6.88;4.70;;;;;;;17.42;69.69;93767.47;5143379;28;20027;-76
2023/06/03 05:23:31;;;;;;;10.88;3.88;;;;;;;17.51;69.63;93761.06;5143082;28;20047;-76
2023/06/03 05:25:56;;;;;;;8.30;4.90;;;;;;;17.63;69.63;93766.25;5124842;28;20038;-75
2023/06/03 05:28:22;;;;;;;7.30;4.25;;;;;;;17.73;69.78;93764.88;5143310;28;20213;-75
2023/06/03 05:30:47;;;;;;;12.48;4.63;;;;;;;17.80;69.45;93756.91;5143263;28;20023;-76
2023/06/03 05:33:33;;;;;;;9.82;4.70;;;;;;;17.95;68.82;93766.81;5142938;28;20023;-76
2023/06/03 05:35:58;;;;;;;15.80;4.47;;;;;;;18.07;68.10;93765.81;5142836;28;20030;-76
2023/06/03 05:38:24;;;;;;;10.18;3.50;;;;;;;18.17;67.21;93770.59;5142897;28;20049;-75
2023/06/03 05:40:51;;;;;;;6.75;3.60;;;;;;;18.27;66.35;93765.72;5142829;28;20243;-76
2023/06/03 05:43:17;;;;;;;12.05;3.60;;;;;;;18.40;65.72;93769.78;5142862;28;20015;-76
2023/06/03 05:45:43;;;;;;;6.78;3.88;;;;;;;18.51;65.39;93775.31;5142702;28;20050;-76
2023/06/03 05:48:09;;;;;;;14.10;4.13;;;;;;;18.64;64.66;93771.22;5143013;28;20021;-75
2023/06/03 05:50:37;;;;;;;7.60;4.22;;;;;;;18.76;64.34;93781.03;5142698;28;20061;-75
2023/06/03 05:53:03;;;;;;;11.75;4.57;;;;;;;18.87;63.95;93771.19;5143096;28;20151;-76
2023/06/03 05:55:29;;;;;;;11.55;4.55;;;;;;;19.00;63.97;93775.19;5143006;28;20325;-76
2023/06/03 05:57:55;;;;;;;11.30;3.80;;;;;;;19.13;63.77;93773.03;5145939;27;20136;-76
2023/06/03 06:00:20;;;;;;;9.80;3.83;;;;;;;19.24;62.90;93773.91;5128186;27;20033;-74
2023/06/03 06:02:47;;;;;;;7.13;3.25;;;;;;;19.38;62.48;93759.78;5146165;27;20094;-76
2023/06/03 06:05:13;;;;;;;6.15;4.07;;;;;;;19.51;61.87;93759.50;5146317;27;20088;-76
2023/06/03 06:07:38;;;;;;;10.25;3.80;;;;;;;19.63;62.06;93773.53;5146528;27;20019;-75
2023/06/03 06:10:04;;;;;;;10.85;4.15;;;;;;;19.74;61.63;93773.66;5146574;27;20371;-75
2023/06/03 06:12:30;;;;;;;15.25;3.90;;;;;;;19.83;60.97;93771.41;5146215;27;20213;-76
2023/06/03 06:14:55;;;;;;;8.65;3.60;;;;;;;19.89;61.05;93763.72;5146002;27;20071;-75
2023/06/03 06:17:21;;;;;;;8.30;4.18;;;;;;;19.97;61.29;93776.16;5146026;27;20275;-76
2023/06/03 06:19:47;;;;;;;8.27;3.67;;;;;;;19.94;59.75;93759.91;5146048;27;20062;-75
2023/06/03 06:22:12;;;;;;;7.38;3.22;;;;;;;20.08;59.68;93770.81;5146093;27;20340;-75
2023/06/03 06:24:38;;;;;;;6.32;3.60;;;;;;;20.26;59.89;93759.38;5146183;27;20064;-75
2023/06/03 06:27:05;;;;;;;13.45;3.95;;;;;;;20.36;59.25;93764.06;5146039;27;20083;-74
2023/06/03 06:29:30;;;;;;;7.00;3.50;;;;;;;20.48;57.22;93763.75;5146156;27;20019;-75
2023/06/03 06:31:56;;;;;;;12.50;4.35;;;;;;;20.59;57.52;93761.91;5145968;27;20029;-76
2023/06/03 06:34:22;;;;;;;9.07;3.65;;;;;;;20.70;55.66;93761.19;5145805;27;20023;-75
2023/06/03 06:36:52;;;;;;;7.97;3.85;;;;;;;20.76;54.70;93759.66;5145537;27;20027;-76
2023/06/03 06:39:50;;;;;;;17.90;4.70;;;;;;;20.79;55.88;93758.91;5145424;27;20023;-74
2023/06/03 06:42:32;;;;;;;6.70;3.38;;;;;;;20.76;56.29;93759.66;5140288;27;20030;-74
2023/06/03 06:45:05;;;;;;;11.05;4.10;;;;;;;20.81;54.50;93762.00;5145813;27;20235;-75
2023/06/03 06:47:35;;;;;;;9.82;4.10;;;;;;;20.85;53.71;93760.09;5126864;27;20201;-74
2023/06/03 06:50:04;;;;;;;8.73;3.28;;;;;;;20.78;53.86;93760.84;5145714;27;20258;-74
2023/06/03 06:52:30;;;;;;;14.15;3.90;;;;;;;20.75;53.98;93768.94;5145687;27;20023;-74
2023/06/03 06:54:56;;;;;;;10.02;3.58;;;;;;;20.70;55.07;93769.28;5126838;27;20376;-74
2023/06/03 06:57:23;;;;;;;8.13;3.53;;;;;;;20.67;55.22;93773.53;5145437;27;20019;-74
2023/06/03 06:59:53;;;;;;;6.20;3.22;;;;;;;20.73;55.41;93771.25;5145154;27;20304;-73
2023/06/03 07:02:19;;;;;;;6.45;3.38;;;;;;;20.75;54.53;93774.38;5145168;27;20377;-74
2023/06/03 07:04:45;;;;;;;12.95;3.50;;;;;;;20.63;54.11;93775.47;5145233;27;20346;-73
2023/06/03 07:07:12;;;;;;;9.10;3.83;;;;;;;20.53;55.54;93776.91;5145038;27;20027;-73
2023/06/03 07:09:38;;;;;;;8.90;3.92;;;;;;;20.42;55.80;93778.81;5144443;27;20011;-73
2023/06/03 07:12:03;;;;;;;8.05;3.80;;;;;;;20.43;55.99;93785.75;5145439;27;20026;-74
2023/06/03 07:14:32;;;;;;;4.90;3.10;;;;;;;20.32;55.84;93776.81;5144823;27;20318;-74
2023/06/03 07:16:58;;;;;;;7.35;4.10;;;;;;;20.21;56.44;93790.25;5144999;27;20015;-75
2023/06/03 07:19:27;;;;;;;8.10;3.85;;;;;;;20.16;56.56;93788.66;5144704;27;20023;-74
2023/06/03 07:21:53;;;;;;;6.85;3.95;;;;;;;20.23;56.79;93793.34;5144881;27;20019;-73
2023/06/03 07:24:18;;;;;;;13.02;4.95;;;;;;;20.32;56.65;93784.91;5144936;27;20042;-73
2023/06/03 07:26:45;;;;;;;11.10;3.67;;;;;;;20.39;56.44;93795.78;5144802;27;20022;-75
2023/06/03 07:29:10;;;;;;;10.20;3.67;;;;;;;20.47;56.54;93794.69;5144841;27;20056;-75
2023/06/03 07:31:36;;;;;;;16.88;4.57;;;;;;;20.67;56.87;93787.09;5144634;27;20019;-75
2023/06/03 07:34:02;;;;;;;6.80;4.03;;;;;;;20.92;56.35;93802.69;5144533;27;20135;-75
2023/06/03 07:36:29;;;;;;;9.27;4.40;;;;;;;21.05;55.16;93798.50;5144706;27;20080;-74
2023/06/03 07:39:06;;;;;;;8.30;4.15;;;;;;;20.97;54.99;93803.09;5144441;27;20393;-76
2023/06/03 07:41:50;;;;;;;12.52;5.28;;;;;;;20.87;55.75;93806.53;5144668;27;20067;-78
2023/06/03 07:44:25;;;;;;;12.20;5.20;;;;;;;20.75;55.64;93807.63;5144309;27;20027;-75
2023/06/03 07:46:57;;;;;;;14.43;4.70;;;;;;;20.73;55.58;93807.25;5144435;27;20313;-74
2023/06/03 07:49:23;;;;;;;9.98;5.22;;;;;;;20.71;55.61;93812.25;5144593;27;20110;-73
2023/06/03 07:51:50;;;;;;;16.02;4.65;;;;;;;20.66;56.52;93814.53;5144403;27;20054;-74
2023/06/03 07:54:17;;;;;;;9.55;4.38;;;;;;;20.59;56.59;93818.00;5142887;27;20015;-74
2023/06/03 07:56:43;;;;;;;9.43;4.95;;;;;;;20.33;57.10;93821.66;5125415;27;20031;-74
2023/06/03 07:59:10;;;;;;;11.02;4.47;;;;;;;20.53;57.82;93822.19;5143678;27;20023;-79
2023/06/03 08:01:36;;;;;;;9.38;4.20;;;;;;;20.68;57.63;93823.84;5144143;27;20102;-83
2023/06/03 08:04:27;;;;;;;8.60;3.65;;;;;;;20.70;57.07;93826.16;5144275;27;20075;-83
2023/06/03 08:06:53;;;;;;;5.70;3.60;;;;;;;20.72;56.14;93823.84;5143865;27;20053;-83
2023/06/03 08:09:25;;;;;;;12.15;3.40;;;;;;;20.64;57.36;93823.06;5144001;27;20015;-82
2023/06/03 08:11:50;;;;;;;5.65;3.30;;;;;;;20.72;57.76;93818.44;5144038;27;20124;-83
2023/06/03 08:14:18;;;;;;;6.50;3.10;;;;;;;20.77;56.73;93820.81;5144194;27;20299;-82
2023/06/03 08:16:43;;;;;;;8.02;3.85;;;;;;;20.80;59.15;93830.88;5143838;27;20217;-83
2023/06/03 08:19:13;;;;;;;5.78;3.42;;;;;;;20.80;56.91;93810.00;5143652;27;20019;-79
2023/06/03 08:21:39;;;;;;;5.15;3.25;;;;;;;20.82;57.13;93813.09;5143388;27;20067;-82
2023/06/03 08:24:05;;;;;;;8.90;3.25;;;;;;;21.09;56.62;93825.63;5143267;27;20329;-83
2023/06/03 08:26:30;;;;;;;4.30;3.00;;;;;;;21.20;56.52;93829.13;5144112;27;20075;-84
2023/06/03 08:28:56;;;;;;;10.00;3.25;;;;;;;21.29;56.69;93818.72;5125568;28;20011;-84
2023/06/03 08:31:21;;;;;;;9.68;3.00;;;;;;;21.49;56.04;93816.47;5143637;27;20277;-85
2023/06/03 08:33:47;;;;;;;10.55;3.13;;;;;;;21.77;54.58;93815.75;5143692;27;20090;-85
2023/06/03 08:36:12;;;;;;;10.02;3.47;;;;;;;21.78;55.09;93814.63;5125309;28;20023;-84
2023/06/03 08:38:40;;;;;;;12.75;3.53;;;;;;;21.73;55.48;93831.25;5143614;27;20030;-84
2023/06/03 08:41:06;;;;;;;7.22;3.05;;;;;;;21.65;54.92;93824.25;5143625;27;20047;-83
2023/06/03 08:43:51;;;;;;;5.22;3.00;;;;;;;21.64;54.73;93837.06;5144024;27;20023;-83
2023/06/03 08:46:25;;;;;;;11.35;2.65;;;;;;;21.66;54.31;93825.84;5143874;28;20229;-84
2023/06/03 08:49:01;;;;;;;12.48;3.72;;;;;;;21.68;54.95;93834.38;5143359;28;20054;-84
2023/06/03 08:51:27;;;;;;;6.45;3.13;;;;;;;21.67;54.95;93824.66;5143616;28;20221;-73
2023/06/03 08:53:53;;;;;;;7.22;3.08;;;;;;;21.68;54.72;93830.88;5124997;28;20019;-73
2023/06/03 08:56:20;;;;;;;11.88;2.60;;;;;;;21.69;55.77;93822.34;5143531;28;20262;-72
2023/06/03 08:58:59;;;;;;;6.20;2.72;;;;;;;21.69;54.41;93818.84;5143410;28;20042;-72
2023/06/03 09:01:35;;;;;;;5.53;2.38;;;;;;;21.66;54.72;93825.84;5124906;28;20080;-72
2023/06/03 09:04:03;;;;;;;5.07;2.55;;;;;;;21.67;53.20;93826.59;5143619;28;20019;-71
2023/06/03 09:06:29;;;;;;;10.35;3.38;;;;;;;21.44;54.77;93825.75;5143308;28;20019;-73
2023/06/03 09:08:55;;;;;;;7.93;3.17;;;;;;;21.44;54.43;93831.19;5143551;28;20023;-73
2023/06/03 09:11:22;;;;;;;6.97;2.83;;;;;;;21.49;54.87;93826.56;5143657;28;20019;-73
2023/06/03 09:13:48;;;;;;;4.57;2.50;;;;;;;21.48;54.18;93816.88;5143406;28;20056;-72
2023/06/03 09:16:16;;;;;;;9.68;2.35;;;;;;;21.41;53.06;93814.88;5143186;28;20043;-73
2023/06/03 09:18:42;;;;;;;5.53;2.63;;;;;;;21.37;53.79;93814.09;5143455;28;20023;-73
2023/06/03 09:21:10;;;;;;;7.45;2.40;;;;;;;21.43;53.96;93810.66;5143678;28;20087;-73
2023/06/03 09:23:56;;;;;;;3.83;2.33;;;;;;;21.44;53.88;93811.44;5143389;28;20039;-72
2023/06/03 09:26:22;;;;;;;11.85;4.70;;;;;;;21.38;53.41;93805.56;5142342;27;20057;-71
2023/06/03 09:28:48;;;;;;;3.95;2.70;;;;;;;21.36;53.46;93807.91;5143404;28;20313;-73
2023/06/03 09:31:14;;;;;;;3.35;2.20;;;;;;;21.35;55.30;93805.56;5143864;27;20045;-72
2023/06/03 09:33:42;;;;;;;6.35;2.42;;;;;;;21.37;53.34;93804.03;5147297;27;20075;-73
2023/06/03 09:36:13;;;;;;;3.55;2.15;;;;;;;21.36;53.12;93807.13;5147302;27;20335;-73
2023/06/03 09:38:45;;;;;;;4.93;2.33;;;;;;;21.33;52.05;93807.88;5147065;27;20031;-73
2023/06/03 09:41:14;;;;;;;;;;;;;;;21.35;52.55;93805.56;5147495;27;20026;-72
2023/06/03 09:43:39;;;;;;;9.07;2.55;;;;;;;21.38;52.36;93804.81;5147234;27;19903;-72
2023/06/03 09:46:10;;;;;;;3.53;2.05;;;;;;;21.52;53.35;93798.69;5147091;27;20212;-72
2023/06/03 09:48:36;;;;;;;4.50;2.30;;;;;;;21.64;50.83;93801.03;5147057;27;20015;-72
2023/06/03 09:51:01;;;;;;;4.07;1.90;;;;;;;21.72;50.53;93793.69;5147004;27;20023;-72
2023/06/03 09:53:27;;;;;;;5.45;2.03;;;;;;;21.81;50.27;93794.06;5147091;27;20031;-72
2023/06/03 09:55:52;;;;;;;6.95;1.95;;;;;;;21.95;48.92;93787.88;5146892;27;20336;-72
2023/06/03 09:58:22;;;;;;;3.50;2.05;;;;;;;22.05;49.61;93792.53;5146861;27;20027;-73
2023/06/03 10:00:49;;;;;;;3.75;2.13;;;;;;;22.21;48.89;93784.03;5146353;27;20030;-72
2023/06/03 10:03:15;;;;;;;5.85;2.38;;;;;;;22.35;48.66;93791.41;5146206;27;20026;-72
2023/06/03 10:05:41;;;;;;;4.60;2.35;;;;;;;22.57;48.00;93790.22;5146738;27;20094;-72
2023/06/03 10:08:07;;;;;;;5.10;1.95;;;;;;;22.69;46.47;93790.94;5146325;27;20022;-72
2023/06/03 10:10:33;;;;;;;4.45;2.30;;;;;;;22.79;45.99;93792.88;5146473;27;20333;-72
2023/06/03 10:13:18;;;;;;;5.60;1.73;;;;;;;22.87;45.11;93778.09;5146616;27;20019;-72
2023/06/03 10:15:43;;;;;;;14.20;2.60;;;;;;;22.98;44.68;93778.84;5146371;27;20111;-72
2023/06/03 10:18:09;;;;;;;4.28;2.55;;;;;;;23.21;46.20;93783.06;5146248;27;20309;-72
2023/06/03 10:20:37;;;;;;;3.92;2.20;;;;;;;23.43;45.19;93773.63;5146718;27;20026;-72
2023/06/03 10:23:03;;;;;;;4.95;2.55;;;;;;;23.64;43.53;93778.16;5146312;27;20344;-72
2023/06/03 10:25:44;;;;;;;6.97;1.90;;;;;;;23.62;42.13;93785.16;5127808;27;20023;-72
2023/06/03 10:28:11;;;;;;;2.45;1.60;;;;;;;23.48;41.52;93785.25;5146379;27;20027;-72
2023/06/03 10:30:37;;;;;;;5.38;1.65;;;;;;;23.48;41.59;93785.25;5145991;27;20073;-72
2023/06/03 10:33:04;;;;;;;5.90;1.88;;;;;;;23.52;43.48;93788.72;5146331;27;20057;-72
2023/06/03 10:35:33;;;;;;;4.70;1.63;;;;;;;23.88;44.75;93781.13;5146203;27;20023;-72
2023/06/03 10:38:01;;;;;;;3.60;1.55;;;;;;;24.26;41.06;93785.91;5146140;27;20098;-72
2023/06/03 10:40:27;;;;;;;3.08;1.52;;;;;;;24.32;39.39;93784.28;5146042;27;20019;-72
2023/06/03 10:42:55;;;;;;;3.22;1.40;;;;;;;24.30;38.86;93783.91;5144947;27;20072;-72
2023/06/03 10:45:21;;;;;;;3.97;1.70;;;;;;;24.31;39.70;93780.78;5145895;27;20380;-72
2023/06/03 10:47:48;;;;;;;5.20;2.08;;;;;;;24.37;40.63;93778.41;5146053;27;20301;-72
2023/06/03 10:50:49;;;;;;;5.25;1.80;;;;;;;24.52;40.21;93776.34;5145904;27;20018;-72
2023/06/03 10:53:39;;;;;;;6.63;1.95;;;;;;;24.48;41.41;93784.53;5141230;27;20039;-72
2023/06/03 10:56:26;;;;;;;3.75;2.08;;;;;;;24.39;43.49;93781.50;5145877;27;20030;-72
2023/06/03 10:59:02;;;;;;;6.00;2.08;;;;;;;24.35;42.82;93780.78;5145669;27;20053;-72
2023/06/03 11:01:58;;;;;;;8.98;2.10;;;;;;;24.33;41.09;93767.53;5145620;27;20059;-72
2023/06/03 11:04:25;;;;;;;5.15;1.80;;;;;;;24.36;40.55;93774.13;5127202;27;20047;-72
2023/06/03 11:06:50;;;;;;;2.60;1.30;;;;;;;24.30;38.58;93778.47;5145558;27;20042;-72
2023/06/03 11:09:49;;;;;;;7.93;2.00;;;;;;;24.38;38.57;93779.94;5145250;27;20317;-73
2023/06/03 11:12:14;;;;;;;4.68;1.98;;;;;;;24.53;38.54;93775.97;5144523;27;20038;-72
2023/06/03 11:14:42;;;;;;;16.60;5.25;;;;;;;24.76;38.38;93771.84;5127030;27;20022;-72
2023/06/03 11:17:09;;;;;;;3.90;1.95;;;;;;;25.00;39.61;93770.00;5145337;27;20034;-72
2023/06/03 11:19:47;;;;;;;4.70;1.92;;;;;;;25.27;37.95;93770.09;5145099;27;20043;-74
2023/06/03 11:22:37;;;;;;;7.22;1.58;;;;;;;25.55;37.85;93770.91;5144751;27;20229;-73
2023/06/03 11:25:03;;;;;;;3.15;1.75;;;;;;;25.61;38.75;93769.28;5145060;27;20090;-73
2023/06/03 11:27:30;;;;;;;3.42;1.70;;;;;;;25.83;38.83;93770.50;5144922;27;20030;-72
2023/06/03 11:29:57;;;;;;;4.18;2.00;;;;;;;26.02;36.70;93769.06;5144719;27;20079;-72
2023/06/03 11:32:35;;;;;;;11.52;2.25;;;;;;;26.22;36.90;93765.66;5126850;27;20031;-73
2023/06/03 11:35:03;;;;;;;8.20;1.90;;;;;;;26.16;35.84;93762.59;5144969;27;20094;-73
2023/06/03 11:37:55;;;;;;;6.97;1.65;;;;;;;26.03;35.31;93767.09;5144887;27;20034;-73